Saint Thomas, North Dakota
Current Conditions -  °F | °C
As of 6:15 PM on Wednesday 22 Oct 2014 (Local Time) from K2C8 Reporting Station
Haze Haze  
Wind Chill: 55°   Ceiling: 4700
Heat Index: 55°   Visibility: 5mi
Dew Point: 54°   Wind: 9mph
Humidity: 94%   Direction: 200°SSW
Pressure: 29.78"   Gusts: NA
Location:  48.62°N, 97.45°W
Report Text: K2C8 222315Z AUTO 20008KT 5SM BR FEW021 FEW033 BKN047 13/12 A2978 RMK AO2
Loading
Personal Weather Stations






























Interactive Weather Map
Tropical Storm Tracking
New forecast layout! Learn more

10-Day Weather Forecast

Advertisements
Track Severe Weather on mobile